createdAt,value
2018-12-03T00:01:48.551Z,12.83
2018-12-03T00:02:54.609Z,12.64
2018-12-03T00:04:02.533Z,12.45
2018-12-03T00:05:06.561Z,12.47
2018-12-03T00:06:10.098Z,12.46
2018-12-03T00:07:13.732Z,12.12
2018-12-03T00:08:17.372Z,12.35
2018-12-03T00:09:21.394Z,12.27
2018-12-03T00:10:24.992Z,12.25
2018-12-03T00:11:28.452Z,12.20
2018-12-03T00:12:31.956Z,12.15
2018-12-03T00:13:35.472Z,12.18
2018-12-03T00:14:39.112Z,12.12
2018-12-03T00:15:42.773Z,12.26
2018-12-03T00:16:46.432Z,12.41
2018-12-03T00:17:49.966Z,12.32
2018-12-03T00:18:53.504Z,12.34
2018-12-03T00:19:57.105Z,12.50
2018-12-03T00:21:00.720Z,12.52
2018-12-03T00:22:04.540Z,12.40
2018-12-03T00:23:08.078Z,12.37
2018-12-03T00:24:11.672Z,12.40
2018-12-03T00:25:15.219Z,12.57
2018-12-03T00:26:18.765Z,12.68
2018-12-03T00:27:22.374Z,12.73
2018-12-03T00:28:25.957Z,12.64
2018-12-03T00:29:29.683Z,12.72
2018-12-03T00:30:34.247Z,12.74
2018-12-03T00:31:37.820Z,12.82
2018-12-03T00:32:41.648Z,12.56
2018-12-03T00:33:45.240Z,12.65
2018-12-03T00:34:48.770Z,12.74
2018-12-03T00:35:53.246Z,12.71
2018-12-03T00:36:56.777Z,12.72
2018-12-03T00:38:00.403Z,12.63
2018-12-03T00:39:04.198Z,12.59
2018-12-03T00:40:07.947Z,12.61
2018-12-03T00:41:11.527Z,12.68
2018-12-03T00:42:15.049Z,12.59
2018-12-03T00:43:18.531Z,12.63
2018-12-03T00:44:22.698Z,12.72
2018-12-03T00:45:26.219Z,12.68
2018-12-03T00:46:29.770Z,12.64
2018-12-03T00:47:33.244Z,12.63
2018-12-03T00:48:36.855Z,12.55
2018-12-03T00:49:40.405Z,12.38
2018-12-03T00:50:43.855Z,12.51
2018-12-03T00:51:47.363Z,12.48
2018-12-03T00:52:50.967Z,12.44
2018-12-03T00:53:54.474Z,12.38
2018-12-03T00:54:58.069Z,12.43
2018-12-03T00:56:01.690Z,12.38
2018-12-03T00:57:05.218Z,12.41
2018-12-03T00:58:08.799Z,12.47
2018-12-03T00:59:12.335Z,12.56
2018-12-03T01:00:15.879Z,12.48
2018-12-03T01:01:19.450Z,12.36
2018-12-03T01:02:24.919Z,12.42
2018-12-03T01:03:28.479Z,12.45
2018-12-03T01:04:32.086Z,12.56
2018-12-03T01:05:35.665Z,12.66
2018-12-03T01:06:39.224Z,12.55
2018-12-03T01:07:42.750Z,12.56
2018-12-03T01:08:46.364Z,12.62
2018-12-03T01:09:49.967Z,12.69
2018-12-03T01:10:53.560Z,12.72
2018-12-03T01:11:57.153Z,12.74
2018-12-03T01:13:01.126Z,12.58
2018-12-03T01:14:04.765Z,12.57
2018-12-03T01:15:09.585Z,12.50
2018-12-03T01:16:13.121Z,12.47
2018-12-03T01:17:16.685Z,12.57
2018-12-03T01:18:20.220Z,12.65
2018-12-03T01:19:23.756Z,12.69
2018-12-03T01:20:27.438Z,12.60
2018-12-03T01:21:31.064Z,12.45
2018-12-03T01:22:34.538Z,12.56
2018-12-03T01:23:38.031Z,12.56
2018-12-03T01:24:41.967Z,12.58
2018-12-03T01:25:45.454Z,12.64
2018-12-03T01:26:49.019Z,12.37
2018-12-03T01:27:52.611Z,12.37
2018-12-03T01:28:56.098Z,12.46
2018-12-03T01:29:59.789Z,12.34
2018-12-03T01:31:03.995Z,12.43
2018-12-03T01:32:07.676Z,12.54
2018-12-03T01:33:11.412Z,12.55
2018-12-03T01:34:14.935Z,12.64
2018-12-03T01:35:18.479Z,12.61
2018-12-03T01:36:22.024Z,12.65
2018-12-03T01:37:25.505Z,12.67
2018-12-03T01:38:29.001Z,12.68
2018-12-03T01:39:32.498Z,12.72
2018-12-03T01:40:36.048Z,12.58
2018-12-03T01:41:39.595Z,12.66
2018-12-03T01:42:43.318Z,12.55
2018-12-03T01:43:46.876Z,12.54
2018-12-03T01:44:50.454Z,12.47
2018-12-03T01:45:53.987Z,12.33
2018-12-03T01:46:57.568Z,12.36
2018-12-03T01:48:01.101Z,12.54
2018-12-03T01:49:04.984Z,12.44
2018-12-03T01:50:11.876Z,12.62
2018-12-03T01:51:15.858Z,12.36
2018-12-03T01:52:20.245Z,12.52
2018-12-03T01:53:24.442Z,12.45
2018-12-03T01:54:28.821Z,12.45
2018-12-03T01:55:32.400Z,12.47
2018-12-03T01:56:36.067Z,12.59
2018-12-03T01:57:39.731Z,12.47
2018-12-03T01:58:43.592Z,12.62
2018-12-03T01:59:47.203Z,12.41
2018-12-03T02:00:50.745Z,12.54
2018-12-03T02:01:54.451Z,12.66
2018-12-03T02:02:58.553Z,12.55
2018-12-03T02:04:02.350Z,12.20
2018-12-03T02:05:06.351Z,12.33
2018-12-03T02:06:09.873Z,12.52
2018-12-03T02:07:14.185Z,12.41
2018-12-03T02:08:17.739Z,12.25
2018-12-03T02:09:21.382Z,12.36
2018-12-03T02:10:24.939Z,12.41
2018-12-03T02:11:28.440Z,12.51
2018-12-03T02:12:31.907Z,12.53
2018-12-03T02:13:35.512Z,12.59
2018-12-03T02:14:39.125Z,12.64
2018-12-03T02:15:42.643Z,12.42
2018-12-03T02:16:46.183Z,12.46
2018-12-03T02:17:49.727Z,12.35
2018-12-03T02:18:53.274Z,12.49
2018-12-03T02:19:56.818Z,12.59
2018-12-03T02:21:00.355Z,12.59
2018-12-03T02:22:04.096Z,12.54
2018-12-03T02:23:07.684Z,12.49
2018-12-03T02:24:11.420Z,12.36
2018-12-03T02:25:15.572Z,12.35
2018-12-03T02:26:19.076Z,12.48
2018-12-03T02:27:22.538Z,12.50
2018-12-03T02:28:26.056Z,12.28
2018-12-03T02:29:29.679Z,12.36
2018-12-03T02:30:33.200Z,12.34
2018-12-03T02:31:37.016Z,12.25
2018-12-03T02:32:41.155Z,12.25
2018-12-03T02:33:44.680Z,12.39
2018-12-03T02:34:48.251Z,12.40
2018-12-03T02:35:51.736Z,12.47
2018-12-03T02:36:55.792Z,12.32
2018-12-03T02:38:00.120Z,12.19
2018-12-03T02:39:04.222Z,12.33
2018-12-03T02:40:12.875Z,12.46
2018-12-03T02:41:16.410Z,12.22
2018-12-03T02:42:19.900Z,12.39
2018-12-03T02:43:23.404Z,12.33
2018-12-03T02:44:26.980Z,12.49
2018-12-03T02:45:30.604Z,12.52
2018-12-03T02:46:34.514Z,12.43
2018-12-03T02:47:38.064Z,12.52
2018-12-03T02:48:41.841Z,12.48
2018-12-03T02:49:45.547Z,12.51
2018-12-03T02:50:49.045Z,12.49
2018-12-03T02:51:52.604Z,12.40
2018-12-03T02:52:56.130Z,12.40
2018-12-03T02:53:59.671Z,12.31
2018-12-03T02:55:03.247Z,12.14
2018-12-03T02:56:07.417Z,12.28
2018-12-03T02:57:11.004Z,12.34
2018-12-03T02:58:14.532Z,12.13
2018-12-03T02:59:18.070Z,12.23
2018-12-03T03:00:21.581Z,12.30
2018-12-03T03:01:25.204Z,12.37
2018-12-03T03:02:28.712Z,12.32
2018-12-03T03:03:32.320Z,12.30
2018-12-03T03:04:35.936Z,12.21
2018-12-03T03:05:39.493Z,12.25
2018-12-03T03:06:42.972Z,12.14
2018-12-03T03:07:46.582Z,12.11
2018-12-03T03:08:50.053Z,12.13
2018-12-03T03:09:53.644Z,12.17
2018-12-03T03:10:57.269Z,12.25
2018-12-03T03:12:01.003Z,12.32
2018-12-03T03:13:04.617Z,12.36
2018-12-03T03:14:08.236Z,12.29
2018-12-03T03:15:13.871Z,12.19
2018-12-03T03:16:17.413Z,12.25
2018-12-03T03:17:20.961Z,12.22
2018-12-03T03:18:24.523Z,12.22
2018-12-03T03:19:28.063Z,12.27
2018-12-03T03:20:31.668Z,12.43
2018-12-03T03:21:35.217Z,12.29
2018-12-03T03:22:38.777Z,12.22
2018-12-03T03:23:42.363Z,12.12
2018-12-03T03:24:45.876Z,12.15
2018-12-03T03:25:49.429Z,12.18
2018-12-03T03:26:52.934Z,12.29
2018-12-03T03:27:56.552Z,12.29
2018-12-03T03:29:00.079Z,12.15
2018-12-03T03:30:03.943Z,12.13
2018-12-03T03:31:07.437Z,12.16
2018-12-03T03:32:11.097Z,12.08
2018-12-03T03:33:14.597Z,12.12
2018-12-03T03:34:18.203Z,11.95
2018-12-03T03:35:21.766Z,12.11
2018-12-03T03:36:25.404Z,12.03
2018-12-03T03:37:28.957Z,12.07
2018-12-03T03:38:32.492Z,12.09
2018-12-03T03:39:36.916Z,11.93
2018-12-03T03:40:40.576Z,11.98
2018-12-03T03:41:44.076Z,11.97
2018-12-03T03:42:48.537Z,11.86
2018-12-03T03:43:52.063Z,11.61
2018-12-03T03:44:55.572Z,11.78
2018-12-03T03:45:59.619Z,11.69
2018-12-03T03:47:03.349Z,11.74
2018-12-03T03:48:06.851Z,11.99
2018-12-03T03:49:11.080Z,12.01
2018-12-03T03:50:14.695Z,12.11
2018-12-03T03:51:18.164Z,12.12
2018-12-03T03:52:21.618Z,12.21
2018-12-03T03:53:25.175Z,12.13
2018-12-03T03:54:28.655Z,12.17
2018-12-03T03:55:32.164Z,12.13
2018-12-03T03:56:35.808Z,12.01
2018-12-03T03:57:39.400Z,11.84
2018-12-03T03:58:42.914Z,11.76
2018-12-03T03:59:46.584Z,11.82
2018-12-03T04:00:50.087Z,11.90
2018-12-03T04:01:53.639Z,11.92
2018-12-03T04:02:57.191Z,11.89
2018-12-03T04:04:00.760Z,12.11
2018-12-03T04:05:04.456Z,11.83
2018-12-03T04:06:08.082Z,12.01
2018-12-03T04:07:12.387Z,12.01
2018-12-03T04:08:15.878Z,12.08
2018-12-03T04:09:19.363Z,12.20
2018-12-03T04:10:23.888Z,12.14
2018-12-03T04:11:28.168Z,12.17
2018-12-03T04:12:31.773Z,12.28
2018-12-03T04:13:35.457Z,12.19
2018-12-03T04:14:38.913Z,12.29
2018-12-03T04:15:43.055Z,12.38
2018-12-03T04:16:46.687Z,12.30
2018-12-03T04:17:50.179Z,12.43
2018-12-03T04:18:53.821Z,12.48
2018-12-03T04:19:57.335Z,12.44
2018-12-03T04:21:00.867Z,12.27
2018-12-03T04:22:04.460Z,12.27
2018-12-03T04:23:08.130Z,12.27
2018-12-03T04:24:11.636Z,12.32
2018-12-03T04:25:15.238Z,12.20
2018-12-03T04:26:18.774Z,12.17
2018-12-03T04:27:22.363Z,12.11
2018-12-03T04:28:25.916Z,12.12
2018-12-03T04:29:29.579Z,12.00
2018-12-03T04:30:33.063Z,12.13
2018-12-03T04:31:36.567Z,12.15
2018-12-03T04:32:40.531Z,12.24
2018-12-03T04:33:50.489Z,12.28
2018-12-03T04:34:54.021Z,12.10
2018-12-03T04:35:57.571Z,12.02
2018-12-03T04:37:01.074Z,12.03
2018-12-03T04:38:04.848Z,12.08
2018-12-03T04:39:08.841Z,12.17
2018-12-03T04:40:13.755Z,12.16
2018-12-03T04:41:17.316Z,11.95
2018-12-03T04:42:20.974Z,12.08
2018-12-03T04:43:24.452Z,12.13
2018-12-03T04:44:28.068Z,12.22
2018-12-03T04:45:31.638Z,12.33
2018-12-03T04:46:35.223Z,12.29
2018-12-03T04:47:38.731Z,12.30
2018-12-03T04:48:42.246Z,12.30
2018-12-03T04:49:45.791Z,12.43
2018-12-03T04:50:49.389Z,12.55
2018-12-03T04:51:52.981Z,12.65
2018-12-03T04:52:56.592Z,12.49
2018-12-03T04:54:00.313Z,12.60
2018-12-03T04:55:03.848Z,12.67
2018-12-03T04:56:07.476Z,12.57
2018-12-03T04:57:11.073Z,12.67
2018-12-03T04:58:14.793Z,12.53
2018-12-03T04:59:18.316Z,12.64
2018-12-03T05:00:22.444Z,12.40
2018-12-03T05:01:26.004Z,12.51
2018-12-03T05:02:29.590Z,12.66
2018-12-03T05:03:33.160Z,12.77
2018-12-03T05:04:36.780Z,12.77
2018-12-03T05:05:40.367Z,12.75
2018-12-03T05:06:43.952Z,12.58
2018-12-03T05:07:47.656Z,12.61
2018-12-03T05:08:51.165Z,12.68
2018-12-03T05:09:54.730Z,12.61
2018-12-03T05:10:58.200Z,12.61
2018-12-03T05:12:01.830Z,12.67
2018-12-03T05:13:05.859Z,12.65
2018-12-03T05:14:09.420Z,12.70
2018-12-03T05:15:13.856Z,12.69
2018-12-03T05:16:17.315Z,12.77
2018-12-03T05:17:20.909Z,12.87
2018-12-03T05:18:24.961Z,12.90
2018-12-03T05:19:28.549Z,12.92
2018-12-03T05:20:32.067Z,12.91
2018-12-03T05:21:35.604Z,12.88
2018-12-03T05:22:39.683Z,12.51
2018-12-03T05:23:43.256Z,12.42
2018-12-03T05:24:46.835Z,12.49
2018-12-03T05:25:50.335Z,12.52
2018-12-03T05:26:53.816Z,12.58
2018-12-03T05:27:57.287Z,12.64
2018-12-03T05:29:00.779Z,12.71
2018-12-03T05:30:06.252Z,12.74
2018-12-03T05:31:10.032Z,12.84
2018-12-03T05:32:13.576Z,12.89
2018-12-03T05:33:17.212Z,12.92
2018-12-03T05:34:21.332Z,12.76
2018-12-03T05:35:26.677Z,12.66
2018-12-03T05:36:30.226Z,12.77
2018-12-03T05:37:33.783Z,12.87
2018-12-03T05:38:37.301Z,12.71
2018-12-03T05:39:40.811Z,12.78
2018-12-03T05:40:44.508Z,12.85
2018-12-03T05:41:48.084Z,12.93
2018-12-03T05:42:51.677Z,12.86
2018-12-03T05:43:55.328Z,12.70
2018-12-03T05:44:59.047Z,12.62
2018-12-03T05:46:02.651Z,12.79
2018-12-03T05:47:06.243Z,12.85
2018-12-03T05:48:09.812Z,12.83
2018-12-03T05:49:13.440Z,12.92
2018-12-03T05:50:17.340Z,12.98
2018-12-03T05:51:20.850Z,12.86
2018-12-03T05:52:24.420Z,12.83
2018-12-03T05:53:28.153Z,12.82
2018-12-03T05:54:31.748Z,12.56
2018-12-03T05:55:35.216Z,12.63
2018-12-03T05:56:38.859Z,12.63
2018-12-03T05:57:43.051Z,12.50
2018-12-03T05:58:46.679Z,12.62
2018-12-03T05:59:50.185Z,12.53
2018-12-03T06:00:53.739Z,12.46
2018-12-03T06:01:57.312Z,12.49
2018-12-03T06:03:00.815Z,12.51
2018-12-03T06:04:04.393Z,12.67
2018-12-03T06:05:09.244Z,12.63
2018-12-03T06:06:12.797Z,12.69
2018-12-03T06:07:16.290Z,12.61
2018-12-03T06:08:19.891Z,12.69
2018-12-03T06:09:23.537Z,12.59
2018-12-03T06:10:26.999Z,12.65
2018-12-03T06:11:30.507Z,12.53
2018-12-03T06:12:34.076Z,12.60
2018-12-03T06:13:37.728Z,12.67
2018-12-03T06:14:41.228Z,12.61
2018-12-03T06:15:44.724Z,12.69
2018-12-03T06:16:48.307Z,12.67
2018-12-03T06:17:53.191Z,12.67
2018-12-03T06:18:56.715Z,12.49
2018-12-03T06:20:01.346Z,12.69
2018-12-03T06:21:05.117Z,12.53
2018-12-03T06:22:08.571Z,12.56
2018-12-03T06:23:12.107Z,12.38
2018-12-03T06:24:15.659Z,12.60
2018-12-03T06:25:21.516Z,12.70
2018-12-03T06:26:25.092Z,12.77
2018-12-03T06:27:28.606Z,12.77
2018-12-03T06:28:32.211Z,12.61
2018-12-03T06:29:35.699Z,12.64
2018-12-03T06:30:39.214Z,12.65
2018-12-03T06:31:42.759Z,12.48
2018-12-03T06:32:46.236Z,12.48
2018-12-03T06:33:49.780Z,12.62
2018-12-03T06:34:53.332Z,12.58
2018-12-03T06:35:56.988Z,12.58
2018-12-03T06:37:00.598Z,12.68
2018-12-03T06:38:04.125Z,12.59
2018-12-03T06:39:09.743Z,12.48
2018-12-03T06:40:15.601Z,12.52
2018-12-03T06:41:19.142Z,12.53
2018-12-03T06:42:22.632Z,12.66
2018-12-03T06:43:26.132Z,12.42
2018-12-03T06:44:29.780Z,12.60
2018-12-03T06:45:33.293Z,12.72
2018-12-03T06:46:37.202Z,12.86
2018-12-03T06:47:43.078Z,12.92
2018-12-03T06:48:46.551Z,12.89
2018-12-03T06:49:50.086Z,12.88
2018-12-03T06:50:53.724Z,12.76
2018-12-03T06:51:57.194Z,12.93
2018-12-03T06:53:00.696Z,12.70
2018-12-03T06:54:04.379Z,12.65
2018-12-03T06:55:09.730Z,12.46
2018-12-03T06:56:13.331Z,12.30
2018-12-03T06:57:16.837Z,12.43
2018-12-03T06:58:20.409Z,12.45
2018-12-03T06:59:23.968Z,12.45
2018-12-03T07:00:27.712Z,12.65
2018-12-03T07:01:31.282Z,12.64
2018-12-03T07:02:34.755Z,12.77
2018-12-03T07:03:38.511Z,12.72
2018-12-03T07:04:42.159Z,12.50
2018-12-03T07:05:47.414Z,12.53
2018-12-03T07:06:50.964Z,12.62
2018-12-03T07:07:56.004Z,12.72
2018-12-03T07:09:00.208Z,12.78
2018-12-03T07:10:03.827Z,12.76
2018-12-03T07:11:07.408Z,12.82
2018-12-03T07:12:11.008Z,12.82
2018-12-03T07:13:18.957Z,12.64
2018-12-03T07:14:22.448Z,12.79
2018-12-03T07:15:25.995Z,12.79
2018-12-03T07:16:29.535Z,12.84
2018-12-03T07:17:33.112Z,12.95
2018-12-03T07:18:37.119Z,12.87
2018-12-03T07:19:40.701Z,12.96
2018-12-03T07:20:45.041Z,12.83
2018-12-03T07:21:49.413Z,12.80
2018-12-03T07:22:53.070Z,12.89
2018-12-03T07:23:56.583Z,12.91
2018-12-03T07:25:00.173Z,12.83
2018-12-03T07:26:03.711Z,12.76
2018-12-03T07:27:07.283Z,12.49
2018-12-03T07:28:10.845Z,12.62
2018-12-03T07:29:15.170Z,12.64
2018-12-03T07:30:20.836Z,12.84
2018-12-03T07:31:24.459Z,12.87
2018-12-03T07:32:27.979Z,12.90
2018-12-03T07:33:32.089Z,12.62
2018-12-03T07:34:35.904Z,12.79
2018-12-03T07:35:39.908Z,12.72
2018-12-03T07:36:43.510Z,12.76
2018-12-03T07:37:47.308Z,12.94
2018-12-03T07:38:50.860Z,12.89
2018-12-03T07:39:54.472Z,12.78
2018-12-03T07:40:57.969Z,12.62
2018-12-03T07:42:01.560Z,12.75
2018-12-03T07:43:05.424Z,12.87
2018-12-03T07:44:08.871Z,12.99
2018-12-03T07:45:14.863Z,13.04
2018-12-03T07:46:18.445Z,12.89
2018-12-03T07:47:22.150Z,12.77
2018-12-03T07:48:25.821Z,12.84
2018-12-03T07:49:29.425Z,13.01
2018-12-03T07:50:33.018Z,13.06
2018-12-03T07:51:36.499Z,12.95
2018-12-03T07:52:40.121Z,12.97
2018-12-03T07:53:43.693Z,12.76
2018-12-03T07:54:47.271Z,12.80
2018-12-03T07:55:50.867Z,13.00
2018-12-03T07:56:54.503Z,13.07
2018-12-03T07:58:01.803Z,13.10
2018-12-03T07:59:05.846Z,12.93
2018-12-03T08:00:15.210Z,12.94
2018-12-03T08:01:18.906Z,12.96
2018-12-03T08:02:22.453Z,13.07
2018-12-03T08:03:26.110Z,13.15
2018-12-03T08:04:29.736Z,13.24
2018-12-03T08:05:33.236Z,13.12
2018-12-03T08:06:36.842Z,13.04
2018-12-03T08:07:40.412Z,13.01
2018-12-03T08:08:43.995Z,13.08
2018-12-03T08:09:47.967Z,13.15
2018-12-03T08:10:53.385Z,13.12
2018-12-03T08:11:56.844Z,13.17
2018-12-03T08:13:00.398Z,13.22
2018-12-03T08:14:04.162Z,13.24
2018-12-03T08:15:17.212Z,12.93
2018-12-03T08:16:20.773Z,12.89
2018-12-03T08:17:24.264Z,13.10
2018-12-03T08:18:27.727Z,13.26
2018-12-03T08:19:31.247Z,13.32
2018-12-03T08:20:41.849Z,13.12
2018-12-03T08:21:45.456Z,13.19
2018-12-03T08:22:51.172Z,13.26
2018-12-03T08:24:01.635Z,13.41
2018-12-03T08:25:05.737Z,13.50
2018-12-03T08:26:10.506Z,13.31
2018-12-03T08:27:14.207Z,13.16
2018-12-03T08:28:17.715Z,13.17
2018-12-03T08:29:21.966Z,13.21
2018-12-03T08:30:25.503Z,13.27
2018-12-03T08:31:29.094Z,13.30
2018-12-03T08:32:32.572Z,13.40
2018-12-03T08:33:36.150Z,13.43
2018-12-03T08:34:39.739Z,13.28
2018-12-03T08:35:43.518Z,13.34
2018-12-03T08:36:47.032Z,13.23
2018-12-03T08:37:51.209Z,13.31
2018-12-03T08:38:54.668Z,13.28
2018-12-03T08:39:58.182Z,13.12
2018-12-03T08:41:05.803Z,13.14
2018-12-03T08:42:09.392Z,13.34
2018-12-03T08:43:13.020Z,13.29
2018-12-03T08:44:16.500Z,13.19
2018-12-03T08:45:20.743Z,13.13
2018-12-03T08:46:24.224Z,13.18
2018-12-03T08:47:28.067Z,13.31
2018-12-03T08:48:35.030Z,13.38
2018-12-03T08:49:38.788Z,13.44
2018-12-03T08:50:44.975Z,13.31
2018-12-03T08:51:48.544Z,13.44
2018-12-03T08:52:52.120Z,13.52
2018-12-03T08:53:55.576Z,13.43
2018-12-03T08:54:59.116Z,13.43
2018-12-03T08:56:02.600Z,13.13
2018-12-03T08:57:06.566Z,13.33
2018-12-03T08:58:12.880Z,13.29
2018-12-03T08:59:16.337Z,13.41
2018-12-03T09:00:26.383Z,13.47
2018-12-03T09:01:29.870Z,13.41
2018-12-03T09:02:33.355Z,13.32
2018-12-03T09:03:36.968Z,13.34
2018-12-03T09:04:40.549Z,13.22
2018-12-03T09:05:43.996Z,13.35
2018-12-03T09:06:48.124Z,13.46
2018-12-03T09:07:52.560Z,13.57
2018-12-03T09:08:56.136Z,13.53
2018-12-03T09:09:59.619Z,13.50
2018-12-03T09:11:03.092Z,13.59
2018-12-03T09:12:06.780Z,13.52
2018-12-03T09:13:13.399Z,13.59
2018-12-03T09:14:17.950Z,13.38
2018-12-03T09:15:21.417Z,13.45
2018-12-03T09:16:25.725Z,13.40
2018-12-03T09:17:29.244Z,13.34
2018-12-03T09:18:34.101Z,13.28
2018-12-03T09:19:37.590Z,13.41
2018-12-03T09:20:41.136Z,13.46
2018-12-03T09:21:44.727Z,13.51
2018-12-03T09:22:48.315Z,13.53
2018-12-03T09:23:53.351Z,13.60
2018-12-03T09:24:56.879Z,13.80
2018-12-03T09:26:00.427Z,13.69
2018-12-03T09:27:04.064Z,13.45
2018-12-03T09:28:07.592Z,13.59
2018-12-03T09:29:11.354Z,13.60
2018-12-03T09:30:14.888Z,13.60
2018-12-03T09:31:21.119Z,13.45
2018-12-03T09:32:24.661Z,13.44
2018-12-03T09:33:28.220Z,13.45
2018-12-03T09:34:31.703Z,13.49
2018-12-03T09:35:35.240Z,13.36
2018-12-03T09:36:39.115Z,13.39
2018-12-03T09:37:42.693Z,13.58
2018-12-03T09:38:59.578Z,13.75
2018-12-03T09:40:03.227Z,13.70
2018-12-03T09:41:06.803Z,13.78
2018-12-03T09:42:10.484Z,13.85
2018-12-03T09:43:14.198Z,13.84
2018-12-03T09:44:17.703Z,13.94
2018-12-03T09:45:21.239Z,13.88
2018-12-03T09:46:24.870Z,13.94
2018-12-03T09:47:28.317Z,14.04
2018-12-03T09:48:31.772Z,14.02
2018-12-03T09:49:35.239Z,14.01
2018-12-03T09:50:38.732Z,14.03
2018-12-03T09:51:42.615Z,14.04
2018-12-03T09:52:46.387Z,14.07
2018-12-03T09:53:52.021Z,14.04
2018-12-03T09:54:56.098Z,14.09
2018-12-03T09:55:59.604Z,14.23
2018-12-03T09:57:03.402Z,14.35
2018-12-03T09:58:10.462Z,14.29
2018-12-03T09:59:16.228Z,14.31
2018-12-03T10:00:19.795Z,14.35
2018-12-03T10:01:23.395Z,14.37
2018-12-03T10:02:28.028Z,14.42
2018-12-03T10:03:34.610Z,14.37
2018-12-03T10:04:40.834Z,14.38
2018-12-03T10:05:47.466Z,14.22
2018-12-03T10:06:51.025Z,14.31
2018-12-03T10:07:54.546Z,14.42
2018-12-03T10:08:58.047Z,14.19
2018-12-03T10:10:01.602Z,14.17
2018-12-03T10:11:05.227Z,14.34
2018-12-03T10:12:09.873Z,14.38
2018-12-03T10:13:14.006Z,14.36
2018-12-03T10:14:19.942Z,14.41
2018-12-03T10:15:28.789Z,14.43
2018-12-03T10:16:32.828Z,14.31
2018-12-03T10:17:36.383Z,14.35
2018-12-03T10:18:40.501Z,14.30
2018-12-03T10:19:44.592Z,14.34
2018-12-03T10:20:49.811Z,14.40
2018-12-03T10:21:53.362Z,14.44
2018-12-03T10:22:56.872Z,14.45
2018-12-03T10:24:00.479Z,14.61
2018-12-03T10:25:09.876Z,14.66
2018-12-03T10:26:14.535Z,14.48
2018-12-03T10:27:18.114Z,14.63
2018-12-03T10:28:21.643Z,14.73
2018-12-03T10:29:25.144Z,14.73
2018-12-03T10:30:28.900Z,14.83
2018-12-03T10:31:32.395Z,14.74
2018-12-03T10:32:35.976Z,14.63
2018-12-03T10:33:39.486Z,14.66
2018-12-03T10:34:42.931Z,14.86
2018-12-03T10:35:46.475Z,14.86
2018-12-03T10:36:56.794Z,15.03
2018-12-03T10:38:05.512Z,15.18
2018-12-03T10:39:12.012Z,14.96
2018-12-03T10:40:20.973Z,14.78
2018-12-03T10:41:30.178Z,14.85
2018-12-03T10:42:33.695Z,15.00
2018-12-03T10:43:37.265Z,15.09
2018-12-03T10:44:40.982Z,15.28
2018-12-03T10:45:44.477Z,15.14
2018-12-03T10:46:51.748Z,15.23
2018-12-03T10:47:56.948Z,15.03
2018-12-03T10:49:05.082Z,15.06
2018-12-03T10:50:12.788Z,15.09
2018-12-03T10:51:18.193Z,15.12
2018-12-03T10:52:23.340Z,15.22
2018-12-03T10:53:29.851Z,15.18
2018-12-03T10:54:37.521Z,15.25
2018-12-03T10:55:43.003Z,15.27
2018-12-03T10:56:46.572Z,15.39
2018-12-03T10:57:50.106Z,15.35
2018-12-03T10:58:53.645Z,15.47
2018-12-03T10:59:57.253Z,15.66
2018-12-03T11:01:10.360Z,15.56
2018-12-03T11:02:19.328Z,15.38
2018-12-03T11:03:28.107Z,15.15
2018-12-03T11:04:40.199Z,15.06
2018-12-03T11:05:49.360Z,15.08
2018-12-03T11:06:53.024Z,15.11
2018-12-03T11:07:56.576Z,15.08
2018-12-03T11:09:00.127Z,15.05
2018-12-03T11:10:03.683Z,15.15
2018-12-03T11:11:07.444Z,15.18
2018-12-03T11:12:10.997Z,14.99
2018-12-03T11:13:14.663Z,14.83
2018-12-03T11:14:18.183Z,14.82
2018-12-03T11:15:22.664Z,14.72
2018-12-03T11:16:28.858Z,14.64
2018-12-03T11:17:33.495Z,14.69
2018-12-03T11:18:47.158Z,14.76
2018-12-03T11:19:50.801Z,14.83
2018-12-03T11:20:54.414Z,14.82
2018-12-03T11:21:58.035Z,14.89
2018-12-03T11:23:01.629Z,14.86
2018-12-03T11:24:05.984Z,14.96
2018-12-03T11:25:12.231Z,15.07
2018-12-03T11:26:15.747Z,15.15
2018-12-03T11:27:20.695Z,15.17
2018-12-03T11:28:24.393Z,15.08
2018-12-03T11:29:28.089Z,14.86
2018-12-03T11:30:32.192Z,14.81
2018-12-03T11:31:35.934Z,14.92
2018-12-03T11:32:39.463Z,14.95
2018-12-03T11:33:43.037Z,14.98
2018-12-03T11:34:46.604Z,15.11
2018-12-03T11:35:50.606Z,15.24
2018-12-03T11:36:58.586Z,15.18
2018-12-03T11:38:07.291Z,14.94
2018-12-03T11:39:14.478Z,15.01
2018-12-03T11:40:27.762Z,14.97
2018-12-03T11:41:31.295Z,15.08
2018-12-03T11:42:37.482Z,15.18
2018-12-03T11:43:41.015Z,15.18
2018-12-03T11:44:44.616Z,15.36
2018-12-03T11:45:48.199Z,15.53
2018-12-03T11:46:51.694Z,15.79
2018-12-03T11:47:55.187Z,15.86
2018-12-03T11:48:58.779Z,15.94
2018-12-03T11:50:02.285Z,16.04
2018-12-03T11:51:06.073Z,16.24
2018-12-03T11:52:09.775Z,16.31
2018-12-03T11:53:13.311Z,16.59
2018-12-03T11:54:16.825Z,16.54
2018-12-03T11:55:20.279Z,16.40
2018-12-03T11:56:23.791Z,16.20
2018-12-03T11:57:27.259Z,16.18
2018-12-03T11:58:30.862Z,16.26
2018-12-03T11:59:34.394Z,16.24
2018-12-03T12:00:38.008Z,16.36
2018-12-03T12:01:41.552Z,16.41
2018-12-03T12:02:45.008Z,16.34
2018-12-03T12:03:48.559Z,16.14
2018-12-03T12:04:52.057Z,16.11
2018-12-03T12:05:55.603Z,16.16
2018-12-03T12:06:59.159Z,16.05
2018-12-03T12:08:02.730Z,16.07
2018-12-03T12:09:09.807Z,16.21
2018-12-03T12:10:13.435Z,16.37
2018-12-03T12:11:16.965Z,16.29
2018-12-03T12:12:20.447Z,16.15
2018-12-03T12:13:24.037Z,15.87
2018-12-03T12:14:28.812Z,15.74
2018-12-03T12:15:32.456Z,15.73
2018-12-03T12:16:36.040Z,15.67
2018-12-03T12:17:39.627Z,15.76
2018-12-03T12:18:43.195Z,15.90
2018-12-03T12:19:46.635Z,16.07
2018-12-03T12:20:50.221Z,16.09
2018-12-03T12:21:53.752Z,16.11
2018-12-03T12:22:57.248Z,16.17
2018-12-03T12:24:00.731Z,16.26
2018-12-03T12:25:04.444Z,16.38
2018-12-03T12:26:07.979Z,16.49
2018-12-03T12:27:11.463Z,16.51
2018-12-03T12:28:15.026Z,16.47
2018-12-03T12:29:18.484Z,16.42
2018-12-03T12:30:21.959Z,16.33
2018-12-03T12:31:28.451Z,16.29
2018-12-03T12:32:32.019Z,16.40
2018-12-03T12:33:35.467Z,16.23
2018-12-03T12:34:38.925Z,16.31
2018-12-03T12:35:42.472Z,16.42
2018-12-03T12:36:45.933Z,16.22
2018-12-03T12:37:49.459Z,16.21
2018-12-03T12:38:52.941Z,16.27
2018-12-03T12:39:56.523Z,15.92
2018-12-03T12:41:00.001Z,15.91
2018-12-03T12:42:03.486Z,15.91
2018-12-03T12:43:08.132Z,15.79
2018-12-03T12:44:12.705Z,15.84
2018-12-03T12:45:20.463Z,16.05
2018-12-03T12:46:26.624Z,16.13
2018-12-03T12:47:30.063Z,16.19
2018-12-03T12:48:33.551Z,16.01
2018-12-03T12:49:37.341Z,15.67
2018-12-03T12:50:40.840Z,15.67
2018-12-03T12:51:44.313Z,15.68
2018-12-03T12:52:47.976Z,15.67
2018-12-03T12:53:51.309Z,14.91
2018-12-03T12:54:54.754Z,15.71
2018-12-03T12:55:58.309Z,15.73
2018-12-03T12:57:01.872Z,15.75
2018-12-03T12:58:06.187Z,15.67
2018-12-03T12:59:09.748Z,15.67
2018-12-03T13:00:15.890Z,15.74
2018-12-03T13:01:19.383Z,15.70
2018-12-03T13:02:22.911Z,15.77
2018-12-03T13:03:26.502Z,15.71
2018-12-03T13:04:30.068Z,15.74
2018-12-03T13:05:33.595Z,15.74
2018-12-03T13:06:37.091Z,15.68
2018-12-03T13:07:40.567Z,15.59
2018-12-03T13:08:44.143Z,15.57
2018-12-03T13:09:47.687Z,15.54
2018-12-03T13:10:51.340Z,15.65
2018-12-03T13:11:54.832Z,15.65
2018-12-03T13:12:58.401Z,15.73
2018-12-03T13:14:01.951Z,15.73
2018-12-03T13:15:07.426Z,15.69
2018-12-03T13:16:10.983Z,15.72
2018-12-03T13:17:14.517Z,15.57
2018-12-03T13:18:17.964Z,15.52
2018-12-03T13:19:22.550Z,15.40
2018-12-03T13:20:26.018Z,15.43
2018-12-03T13:21:29.471Z,15.39
2018-12-03T13:22:36.247Z,15.34
2018-12-03T13:23:39.900Z,15.33
2018-12-03T13:24:43.401Z,15.32
2018-12-03T13:25:46.874Z,15.39
2018-12-03T13:26:50.362Z,15.39
2018-12-03T13:27:54.659Z,15.33
2018-12-03T13:28:58.164Z,15.17
2018-12-03T13:30:01.695Z,15.24
2018-12-03T13:31:05.666Z,15.30
2018-12-03T13:32:09.269Z,15.34
2018-12-03T13:33:13.427Z,15.32
2018-12-03T13:34:16.911Z,15.37
2018-12-03T13:35:20.399Z,15.43
2018-12-03T13:36:23.902Z,15.50
2018-12-03T13:37:27.403Z,15.53
2018-12-03T13:38:30.885Z,15.45
2018-12-03T13:39:34.332Z,15.33
2018-12-03T13:40:37.884Z,15.14
2018-12-03T13:41:41.447Z,15.08
2018-12-03T13:42:45.852Z,15.05
2018-12-03T13:43:49.312Z,15.17
2018-12-03T13:44:52.846Z,15.22
2018-12-03T13:45:56.437Z,15.15